Terminal Aerodrome Forecast
Issued by NWS

Home | Current Version | Previous Version | Text Only | Print | Product List | Glossary On
Versions: 1 2 3 4 5 6 7 8 9 10 11 12
000
FTUS44 KLIX 211123
TAFHDC
TAF
KHDC 211123Z 2112/2212 10004KT P6SM SCT050 BKN130
     FM211800 13008KT P6SM VCSH SCT025 BKN060
     FM212100 13009KT P6SM SCT020 BKN080 PROB30 2121/2124 4SM SHRA
      BKN020
     FM220400 12006KT P6SM SCT015 BKN030
     FM220700 13007KT P6SM BKN015
     FM221100 13006KT P6SM BKN008 BKN015=

USA.gov is the U.S. government's official web portal to all federal, state and local government web resources and services.